createdAt,value
2023-02-19T00:02:08.700Z,13.30
2023-02-19T00:04:35.609Z,13.30
2023-02-19T00:07:02.530Z,13.30
2023-02-19T00:09:29.463Z,13.20
2023-02-19T00:11:56.282Z,13.20
2023-02-19T00:14:23.195Z,13.20
2023-02-19T00:16:50.489Z,13.20
2023-02-19T00:19:20.239Z,13.20
2023-02-19T00:21:48.001Z,13.10
2023-02-19T00:24:15.210Z,13.10
2023-02-19T00:26:43.365Z,13.10
2023-02-19T00:29:14.389Z,13.10
2023-02-19T00:31:41.739Z,13.10
2023-02-19T00:34:10.428Z,13.10
2023-02-19T00:36:39.163Z,13.10
2023-02-19T00:39:07.853Z,13.00
2023-02-19T00:41:34.742Z,13.00
2023-02-19T00:44:04.276Z,13.10
2023-02-19T00:46:32.470Z,13.10
2023-02-19T00:49:00.196Z,13.10
2023-02-19T00:51:32.403Z,13.00
2023-02-19T00:54:00.233Z,12.90
2023-02-19T00:56:28.084Z,13.00
2023-02-19T00:58:56.329Z,13.00
2023-02-19T01:01:23.271Z,13.00
2023-02-19T01:03:50.254Z,13.00
2023-02-19T01:06:19.677Z,13.00
2023-02-19T01:08:46.684Z,12.90
2023-02-19T01:11:14.508Z,13.00
2023-02-19T01:13:42.436Z,13.00
2023-02-19T01:16:18.354Z,12.90
2023-02-19T01:18:45.933Z,12.90
2023-02-19T01:21:15.732Z,12.90
2023-02-19T01:23:43.063Z,12.90
2023-02-19T01:26:14.371Z,12.90
2023-02-19T01:28:41.691Z,12.90
2023-02-19T01:31:13.560Z,12.90
2023-02-19T01:33:40.898Z,12.90
2023-02-19T01:36:07.977Z,13.00
2023-02-19T01:38:34.816Z,12.90
2023-02-19T01:41:04.783Z,12.90
2023-02-19T01:43:33.809Z,13.00
2023-02-19T01:46:01.154Z,12.90
2023-02-19T01:48:33.111Z,12.90
2023-02-19T01:51:19.628Z,12.80
2023-02-19T01:53:52.600Z,12.80
2023-02-19T01:56:21.232Z,12.90
2023-02-19T01:58:48.261Z,12.90
2023-02-19T02:01:15.114Z,12.90
2023-02-19T02:03:45.388Z,12.80
2023-02-19T02:06:18.025Z,12.80
2023-02-19T02:09:03.602Z,12.90
2023-02-19T02:11:31.079Z,12.90
2023-02-19T02:13:58.671Z,13.00
2023-02-19T02:16:49.374Z,12.90
2023-02-19T02:19:30.858Z,13.00
2023-02-19T02:22:12.467Z,13.00
2023-02-19T02:25:09.859Z,12.90
2023-02-19T02:27:45.719Z,12.70
2023-02-19T02:30:30.045Z,12.70
2023-02-19T02:33:13.490Z,12.70
2023-02-19T02:35:59.069Z,12.70
2023-02-19T02:38:29.918Z,12.80
2023-02-19T02:40:57.361Z,12.70
2023-02-19T02:43:24.556Z,12.60
2023-02-19T02:45:51.594Z,12.70
2023-02-19T02:48:57.570Z,12.60
2023-02-19T02:51:35.677Z,12.50
2023-02-19T02:54:30.416Z,12.60
2023-02-19T02:56:58.917Z,12.60
2023-02-19T02:59:28.892Z,12.70
2023-02-19T03:02:14.540Z,12.60
2023-02-19T03:05:21.390Z,12.70
2023-02-19T03:08:00.830Z,12.50
2023-02-19T03:10:45.966Z,12.50
2023-02-19T03:13:56.609Z,12.40
2023-02-19T03:16:47.113Z,12.40
2023-02-19T03:19:19.178Z,12.30
2023-02-19T03:22:16.836Z,12.20
2023-02-19T03:25:10.489Z,12.20
2023-02-19T03:27:40.921Z,12.20
2023-02-19T03:30:21.277Z,12.20
2023-02-19T03:33:12.253Z,12.20
2023-02-19T03:35:44.840Z,12.20
2023-02-19T03:38:37.296Z,12.20
2023-02-19T03:41:31.120Z,12.30
2023-02-19T03:44:12.491Z,12.30
2023-02-19T03:47:10.453Z,12.30
2023-02-19T03:50:06.773Z,12.30
2023-02-19T03:52:51.893Z,12.30
2023-02-19T03:55:41.837Z,12.30
2023-02-19T03:58:17.671Z,12.30
2023-02-19T04:01:00.239Z,12.30
2023-02-19T04:03:37.844Z,12.30
2023-02-19T04:06:12.245Z,12.30
2023-02-19T04:08:43.111Z,12.40
2023-02-19T04:11:12.000Z,12.40
2023-02-19T04:13:54.941Z,12.40
2023-02-19T04:16:25.056Z,12.40
2023-02-19T04:18:55.316Z,12.50
2023-02-19T04:21:23.844Z,12.60
2023-02-19T04:23:50.897Z,12.50
2023-02-19T04:26:20.179Z,12.40
2023-02-19T04:28:47.252Z,12.40
2023-02-19T04:31:14.885Z,12.40
2023-02-19T04:33:41.987Z,12.40
2023-02-19T04:36:10.939Z,12.30
2023-02-19T04:38:37.985Z,12.20
2023-02-19T04:41:04.964Z,12.20
2023-02-19T04:43:31.908Z,12.20
2023-02-19T04:46:02.341Z,12.30
2023-02-19T04:48:29.710Z,12.20
2023-02-19T04:50:56.669Z,12.20
2023-02-19T04:53:23.824Z,12.10
2023-02-19T04:55:53.270Z,12.00
2023-02-19T04:58:21.238Z,12.00
2023-02-19T05:00:52.190Z,12.00
2023-02-19T05:03:19.137Z,12.00
2023-02-19T05:05:45.950Z,12.00
2023-02-19T05:08:12.882Z,12.10
2023-02-19T05:10:39.873Z,12.00
2023-02-19T05:13:06.758Z,12.00
2023-02-19T05:15:33.661Z,11.90
2023-02-19T05:18:00.689Z,11.90
2023-02-19T05:20:27.626Z,12.00
2023-02-19T05:22:54.542Z,11.90
2023-02-19T05:25:21.772Z,12.00
2023-02-19T05:27:48.664Z,12.00
2023-02-19T05:30:15.624Z,11.90
2023-02-19T05:32:42.531Z,11.90
2023-02-19T05:35:09.361Z,12.00
2023-02-19T05:37:36.335Z,12.00
2023-02-19T05:40:03.362Z,11.90
2023-02-19T05:42:30.292Z,12.00
2023-02-19T05:44:57.137Z,11.90
2023-02-19T05:47:24.066Z,11.90
2023-02-19T05:49:50.909Z,11.90
2023-02-19T05:52:17.756Z,11.80
2023-02-19T05:54:44.580Z,11.80
2023-02-19T05:57:11.504Z,11.80
2023-02-19T05:59:38.341Z,11.80
2023-02-19T06:02:05.153Z,11.80
2023-02-19T06:04:32.074Z,11.80
2023-02-19T06:06:58.913Z,11.70
2023-02-19T06:09:25.780Z,11.70
2023-02-19T06:11:52.625Z,11.70
2023-02-19T06:14:19.598Z,11.60
2023-02-19T06:16:46.447Z,11.60
2023-02-19T06:19:13.329Z,11.70
2023-02-19T06:21:40.307Z,11.70
2023-02-19T06:24:10.363Z,11.70
2023-02-19T06:26:38.204Z,11.60
2023-02-19T06:29:05.046Z,11.60
2023-02-19T06:31:31.985Z,11.60
2023-02-19T06:33:58.946Z,11.70
2023-02-19T06:36:25.957Z,11.70
2023-02-19T06:38:52.871Z,11.80
2023-02-19T06:41:19.892Z,11.90
2023-02-19T06:43:47.199Z,11.80
2023-02-19T06:46:14.207Z,11.80
2023-02-19T06:48:43.731Z,11.80
2023-02-19T06:51:13.325Z,11.80
2023-02-19T06:53:40.279Z,11.80
2023-02-19T06:56:23.127Z,11.70
2023-02-19T06:58:50.063Z,11.80
2023-02-19T07:01:16.979Z,11.70
2023-02-19T07:03:44.005Z,11.70
2023-02-19T07:06:10.844Z,11.80
2023-02-19T07:08:37.872Z,11.80
2023-02-19T07:11:04.950Z,11.80
2023-02-19T07:13:31.865Z,11.90
2023-02-19T07:16:01.083Z,11.80
2023-02-19T07:18:32.299Z,11.80
2023-02-19T07:21:06.959Z,11.90
2023-02-19T07:23:34.253Z,12.00
2023-02-19T07:26:01.810Z,12.10
2023-02-19T07:28:28.650Z,12.20
2023-02-19T07:31:00.728Z,12.20
2023-02-19T07:33:27.768Z,12.10
2023-02-19T07:35:54.663Z,12.10
2023-02-19T07:38:23.284Z,12.20
2023-02-19T07:40:58.689Z,12.10
2023-02-19T07:43:27.694Z,12.20
2023-02-19T07:45:54.958Z,12.20
2023-02-19T07:48:21.813Z,12.10
2023-02-19T07:50:52.903Z,12.10
2023-02-19T07:53:20.586Z,12.20
2023-02-19T07:55:47.641Z,12.20
2023-02-19T07:58:14.561Z,12.20
2023-02-19T08:00:41.672Z,12.10
2023-02-19T08:03:08.732Z,12.30
2023-02-19T08:05:41.180Z,12.30
2023-02-19T08:08:09.585Z,12.50
2023-02-19T08:10:55.386Z,12.40
2023-02-19T08:13:22.937Z,12.20
2023-02-19T08:15:52.160Z,11.90
2023-02-19T08:18:21.768Z,12.00
2023-02-19T08:20:48.802Z,12.10
2023-02-19T08:23:16.025Z,12.20
2023-02-19T08:25:43.246Z,12.80
2023-02-19T08:28:11.330Z,13.60
2023-02-19T08:30:40.045Z,14.60
2023-02-19T08:33:08.230Z,16.00
2023-02-19T08:35:36.627Z,18.30
2023-02-19T08:38:04.972Z,20.60
2023-02-19T08:40:32.938Z,22.60
2023-02-19T08:43:07.809Z,24.70
2023-02-19T08:45:36.593Z,27.20
2023-02-19T08:48:03.627Z,25.90
2023-02-19T08:50:31.000Z,24.60
2023-02-19T08:53:00.098Z,22.90
2023-02-19T08:55:27.561Z,21.90
2023-02-19T08:57:54.925Z,20.60
2023-02-19T09:00:21.944Z,19.20
2023-02-19T09:02:49.409Z,18.00
2023-02-19T09:05:17.036Z,17.10
2023-02-19T09:07:43.904Z,16.40
2023-02-19T09:10:12.912Z,16.40
2023-02-19T09:12:40.626Z,16.10
2023-02-19T09:15:08.295Z,17.00
2023-02-19T09:17:35.336Z,19.00
2023-02-19T09:20:02.336Z,21.30
2023-02-19T09:22:29.233Z,23.00
2023-02-19T09:24:56.042Z,24.20
2023-02-19T09:27:22.923Z,25.60
2023-02-19T09:29:49.776Z,26.40
2023-02-19T09:32:18.797Z,25.30
2023-02-19T09:34:46.085Z,23.30
2023-02-19T09:37:13.090Z,23.70
2023-02-19T09:39:39.865Z,25.60
2023-02-19T09:42:12.932Z,24.20
2023-02-19T09:44:42.868Z,22.00
2023-02-19T09:47:17.580Z,19.50
2023-02-19T09:49:50.211Z,18.00
2023-02-19T09:52:24.495Z,17.10
2023-02-19T09:54:57.634Z,16.60
2023-02-19T09:57:26.842Z,16.20
2023-02-19T10:00:01.797Z,15.80
2023-02-19T10:02:30.862Z,15.80
2023-02-19T10:04:58.693Z,15.80
2023-02-19T10:07:43.406Z,15.70
2023-02-19T10:10:13.297Z,15.30
2023-02-19T10:12:45.787Z,15.30
2023-02-19T10:15:18.767Z,15.70
2023-02-19T10:17:45.688Z,16.20
2023-02-19T10:20:18.406Z,16.40
2023-02-19T10:22:45.697Z,16.10
2023-02-19T10:25:16.835Z,15.80
2023-02-19T10:27:44.425Z,15.80
2023-02-19T10:30:21.590Z,15.60
2023-02-19T10:33:02.240Z,15.60
2023-02-19T10:35:30.933Z,15.60
2023-02-19T10:37:58.146Z,15.50
2023-02-19T10:40:27.470Z,15.40
2023-02-19T10:43:00.962Z,15.40
2023-02-19T10:45:45.328Z,15.30
2023-02-19T10:48:27.512Z,15.30
2023-02-19T10:50:59.988Z,15.30
2023-02-19T10:53:41.339Z,15.20
2023-02-19T10:56:14.274Z,15.30
2023-02-19T10:58:44.742Z,15.50
2023-02-19T11:01:29.205Z,15.70
2023-02-19T11:04:16.464Z,15.80
2023-02-19T11:06:43.677Z,15.30
2023-02-19T11:09:22.872Z,15.40
2023-02-19T11:11:53.160Z,15.40
2023-02-19T11:14:24.170Z,15.50
2023-02-19T11:16:56.604Z,15.60
2023-02-19T11:19:31.910Z,15.30
2023-02-19T11:22:00.462Z,15.10
2023-02-19T11:24:34.907Z,15.10
2023-02-19T11:27:07.112Z,15.40
2023-02-19T11:29:37.380Z,15.30
2023-02-19T11:32:26.230Z,15.40
2023-02-19T11:35:13.428Z,15.40
2023-02-19T11:37:56.128Z,15.40
2023-02-19T11:40:38.062Z,15.40
2023-02-19T11:43:13.967Z,15.60
2023-02-19T11:46:09.762Z,15.50
2023-02-19T11:48:42.158Z,15.30
2023-02-19T11:51:30.878Z,15.10
2023-02-19T11:54:16.294Z,15.10
2023-02-19T11:56:45.135Z,15.00
2023-02-19T11:59:32.962Z,14.90
2023-02-19T12:02:18.185Z,15.00
2023-02-19T12:04:51.256Z,15.00
2023-02-19T12:07:40.225Z,15.20
2023-02-19T12:10:25.569Z,15.10
2023-02-19T12:13:13.645Z,15.10
2023-02-19T12:15:49.654Z,15.60
2023-02-19T12:18:22.480Z,15.80
2023-02-19T12:21:17.205Z,16.00
2023-02-19T12:24:22.010Z,16.10
2023-02-19T12:26:58.417Z,15.90
2023-02-19T12:29:36.266Z,15.80
2023-02-19T12:32:13.213Z,16.00
2023-02-19T12:35:21.519Z,16.20
2023-02-19T12:38:19.324Z,16.10
2023-02-19T12:40:57.964Z,16.60
2023-02-19T12:43:24.999Z,16.60
2023-02-19T12:46:11.520Z,16.50
2023-02-19T12:49:07.269Z,16.50
2023-02-19T12:51:55.302Z,16.50
2023-02-19T12:54:42.122Z,16.60
2023-02-19T12:57:38.887Z,16.40
2023-02-19T13:00:21.026Z,16.00
2023-02-19T13:02:58.899Z,15.90
2023-02-19T13:05:47.812Z,16.10
2023-02-19T13:08:25.267Z,16.10
2023-02-19T13:11:01.371Z,16.10
2023-02-19T13:13:38.572Z,16.20
2023-02-19T13:16:18.486Z,16.30
2023-02-19T13:18:57.612Z,16.30
2023-02-19T13:21:48.622Z,16.30
2023-02-19T13:24:40.401Z,16.40
2023-02-19T13:27:23.760Z,16.40
2023-02-19T13:29:56.262Z,16.20
2023-02-19T13:32:53.806Z,16.10
2023-02-19T13:35:42.466Z,15.70
2023-02-19T13:38:12.308Z,15.50
2023-02-19T13:40:56.541Z,15.40
2023-02-19T13:43:35.476Z,15.40
2023-02-19T13:46:11.599Z,15.20
2023-02-19T13:48:44.304Z,15.00
2023-02-19T13:51:21.697Z,14.70
2023-02-19T13:53:50.346Z,14.80
2023-02-19T13:56:34.863Z,14.70
2023-02-19T13:59:23.645Z,14.80
2023-02-19T14:01:51.485Z,14.60
2023-02-19T14:04:48.472Z,14.60
2023-02-19T14:07:15.228Z,14.60
2023-02-19T14:09:45.070Z,14.60
2023-02-19T14:12:16.048Z,14.60
2023-02-19T14:14:45.322Z,14.40
2023-02-19T14:17:47.922Z,14.40
2023-02-19T14:20:17.299Z,14.30
2023-02-19T14:22:49.783Z,14.30
2023-02-19T14:25:31.919Z,14.40
2023-02-19T14:28:14.416Z,14.40
2023-02-19T14:30:55.235Z,14.40
2023-02-19T14:33:35.684Z,14.40
2023-02-19T14:36:25.185Z,14.50
2023-02-19T14:38:54.988Z,14.50
2023-02-19T14:41:23.429Z,14.50
2023-02-19T14:43:53.604Z,14.40
2023-02-19T14:46:32.307Z,14.60
2023-02-19T14:49:17.736Z,14.60
2023-02-19T14:51:49.526Z,14.40
2023-02-19T14:54:38.932Z,14.40
2023-02-19T14:57:12.813Z,14.20
2023-02-19T14:59:39.846Z,14.00
2023-02-19T15:02:27.116Z,14.10
2023-02-19T15:04:55.034Z,14.00
2023-02-19T15:07:26.239Z,14.10
2023-02-19T15:09:57.537Z,14.00
2023-02-19T15:12:26.971Z,14.00
2023-02-19T15:14:59.539Z,13.90
2023-02-19T15:17:29.557Z,13.90
2023-02-19T15:19:58.875Z,13.90
2023-02-19T15:22:28.578Z,13.80
2023-02-19T15:24:55.805Z,13.90
2023-02-19T15:27:24.587Z,13.70
2023-02-19T15:29:53.652Z,13.90
2023-02-19T15:32:28.686Z,13.90
2023-02-19T15:35:01.191Z,13.60
2023-02-19T15:37:31.246Z,13.50
2023-02-19T15:40:01.000Z,13.50
2023-02-19T15:42:31.078Z,13.50
2023-02-19T15:45:07.489Z,13.50
2023-02-19T15:47:50.799Z,13.40
2023-02-19T15:50:23.743Z,13.30
2023-02-19T15:53:00.873Z,13.30
2023-02-19T15:55:50.521Z,13.30
2023-02-19T15:58:23.844Z,13.50
2023-02-19T16:00:55.564Z,13.40
2023-02-19T16:03:24.926Z,13.30
2023-02-19T16:06:18.423Z,13.40
2023-02-19T16:09:02.041Z,13.10
2023-02-19T16:11:36.697Z,13.10
2023-02-19T16:14:22.729Z,13.20
2023-02-19T16:16:53.721Z,13.20
2023-02-19T16:19:28.490Z,13.30
2023-02-19T16:21:55.849Z,12.60
2023-02-19T16:24:45.320Z,13.10
2023-02-19T16:27:14.382Z,13.10
2023-02-19T16:29:41.488Z,12.90
2023-02-19T16:32:17.111Z,13.00
2023-02-19T16:34:49.125Z,13.00
2023-02-19T16:37:36.261Z,12.80
2023-02-19T16:40:09.196Z,12.80
2023-02-19T16:42:48.702Z,12.80
2023-02-19T16:45:16.787Z,12.90
2023-02-19T16:47:48.291Z,12.90
2023-02-19T16:50:17.726Z,13.00
2023-02-19T16:52:55.284Z,12.90
2023-02-19T16:55:22.937Z,12.90
2023-02-19T16:57:49.880Z,12.80
2023-02-19T17:00:25.472Z,12.90
2023-02-19T17:02:55.469Z,12.90
2023-02-19T17:05:23.920Z,12.80
2023-02-19T17:07:51.008Z,12.70
2023-02-19T17:10:22.896Z,12.70
2023-02-19T17:12:50.850Z,12.80
2023-02-19T17:15:18.309Z,12.80
2023-02-19T17:17:45.432Z,13.00
2023-02-19T17:20:18.428Z,12.90
2023-02-19T17:22:45.294Z,12.90
2023-02-19T17:25:12.249Z,12.70
2023-02-19T17:27:39.347Z,12.70
2023-02-19T17:30:31.414Z,12.70
2023-02-19T17:32:58.642Z,12.60
2023-02-19T17:35:25.819Z,12.60
2023-02-19T17:37:53.539Z,12.60
2023-02-19T17:40:32.818Z,12.60
2023-02-19T17:43:01.616Z,12.60
2023-02-19T17:45:28.548Z,12.60
2023-02-19T17:47:55.449Z,12.60
2023-02-19T17:50:28.666Z,12.60
2023-02-19T17:52:55.517Z,12.60
2023-02-19T17:55:22.435Z,12.70
2023-02-19T17:57:50.833Z,12.70
2023-02-19T18:00:27.326Z,12.70
2023-02-19T18:02:54.762Z,12.60
2023-02-19T18:05:22.524Z,12.50
2023-02-19T18:07:51.472Z,12.50
2023-02-19T18:10:20.562Z,12.40
2023-02-19T18:12:47.501Z,12.50
2023-02-19T18:15:26.780Z,12.50
2023-02-19T18:17:55.179Z,12.40
2023-02-19T18:20:24.858Z,12.30
2023-02-19T18:22:52.652Z,12.40
2023-02-19T18:25:20.312Z,12.30
2023-02-19T18:27:47.556Z,12.40
2023-02-19T18:30:17.607Z,12.30
2023-02-19T18:32:47.623Z,12.40
2023-02-19T18:35:16.549Z,12.40
2023-02-19T18:37:43.423Z,12.40
2023-02-19T18:40:10.883Z,12.40
2023-02-19T18:42:37.846Z,12.60
2023-02-19T18:45:04.907Z,12.50
2023-02-19T18:47:31.725Z,12.50
2023-02-19T18:49:59.589Z,12.40
2023-02-19T18:52:27.909Z,12.30
2023-02-19T18:54:57.242Z,12.20
2023-02-19T18:57:25.832Z,12.20
2023-02-19T18:59:53.593Z,12.20
2023-02-19T19:02:20.776Z,12.30
2023-02-19T19:04:52.785Z,12.30
2023-02-19T19:07:20.598Z,12.40
2023-02-19T19:09:48.199Z,12.40
2023-02-19T19:12:15.288Z,12.40
2023-02-19T19:14:42.473Z,12.40
2023-02-19T19:17:09.462Z,12.30
2023-02-19T19:19:36.349Z,12.30
2023-02-19T19:22:03.357Z,12.30
2023-02-19T19:24:30.225Z,12.30
2023-02-19T19:26:57.138Z,12.30
2023-02-19T19:29:24.368Z,12.20
2023-02-19T19:31:51.555Z,12.20
2023-02-19T19:34:19.101Z,12.20
2023-02-19T19:36:47.045Z,12.30
2023-02-19T19:39:14.045Z,12.30
2023-02-19T19:41:41.029Z,12.30
2023-02-19T19:44:09.109Z,12.30
2023-02-19T19:46:42.574Z,12.20
2023-02-19T19:49:09.431Z,12.30
2023-02-19T19:51:36.504Z,12.20
2023-02-19T19:54:04.187Z,12.20
2023-02-19T19:56:31.509Z,12.30
2023-02-19T19:58:58.513Z,12.20
2023-02-19T20:01:25.499Z,12.30
2023-02-19T20:03:52.400Z,12.20
2023-02-19T20:06:27.891Z,12.20
2023-02-19T20:08:55.483Z,12.30
2023-02-19T20:11:22.801Z,12.40
2023-02-19T20:13:50.015Z,12.30
2023-02-19T20:16:16.906Z,12.20
2023-02-19T20:18:43.839Z,12.30
2023-02-19T20:21:11.369Z,12.30
2023-02-19T20:23:39.746Z,12.30
2023-02-19T20:26:07.424Z,12.10
2023-02-19T20:28:34.295Z,12.00
2023-02-19T20:31:01.332Z,12.00
2023-02-19T20:33:28.224Z,11.90
2023-02-19T20:35:56.943Z,12.00
2023-02-19T20:38:24.006Z,12.00
2023-02-19T20:40:50.942Z,12.00
2023-02-19T20:43:17.918Z,12.10
2023-02-19T20:45:46.472Z,12.20
2023-02-19T20:48:18.470Z,11.90
2023-02-19T20:50:45.298Z,12.10
2023-02-19T20:53:12.328Z,12.00
2023-02-19T20:55:39.266Z,12.00
2023-02-19T20:58:06.202Z,12.00
2023-02-19T21:00:33.132Z,12.20
2023-02-19T21:03:00.042Z,12.20
2023-02-19T21:05:26.969Z,12.10
2023-02-19T21:07:53.797Z,12.00
2023-02-19T21:10:20.643Z,11.90
2023-02-19T21:12:48.087Z,11.90
2023-02-19T21:15:15.033Z,11.80
2023-02-19T21:17:44.873Z,11.70
2023-02-19T21:20:11.960Z,11.80
2023-02-19T21:22:38.876Z,11.70
2023-02-19T21:25:06.124Z,11.80
2023-02-19T21:27:32.977Z,11.90
2023-02-19T21:29:59.885Z,12.00
2023-02-19T21:32:26.922Z,12.10
2023-02-19T21:34:54.021Z,12.10
2023-02-19T21:37:20.888Z,12.00
2023-02-19T21:39:47.746Z,12.00
2023-02-19T21:42:14.629Z,12.00
2023-02-19T21:44:43.072Z,12.10
2023-02-19T21:47:12.320Z,12.00
2023-02-19T21:49:41.766Z,12.00
2023-02-19T21:52:09.186Z,11.90
2023-02-19T21:54:36.096Z,11.80
2023-02-19T21:57:03.698Z,11.80
2023-02-19T21:59:30.554Z,11.90
2023-02-19T22:01:57.430Z,11.90
2023-02-19T22:04:24.624Z,11.90
2023-02-19T22:06:56.203Z,12.00
2023-02-19T22:09:23.510Z,12.00
2023-02-19T22:11:50.597Z,12.00
2023-02-19T22:14:17.804Z,12.00
2023-02-19T22:16:44.845Z,11.90
2023-02-19T22:19:12.797Z,11.90
2023-02-19T22:21:43.942Z,11.80
2023-02-19T22:24:19.457Z,11.60
2023-02-19T22:26:47.274Z,11.60
2023-02-19T22:29:15.431Z,11.50
2023-02-19T22:31:42.846Z,11.40
2023-02-19T22:34:09.988Z,11.40
2023-02-19T22:36:40.338Z,11.50
2023-02-19T22:39:14.789Z,11.40
2023-02-19T22:41:45.185Z,11.30
2023-02-19T22:44:12.725Z,11.10
2023-02-19T22:46:39.640Z,11.10
2023-02-19T22:49:07.297Z,10.80
2023-02-19T22:51:35.652Z,10.80
2023-02-19T22:54:02.769Z,10.60
2023-02-19T22:56:29.928Z,10.30
2023-02-19T22:58:58.012Z,10.10
2023-02-19T23:01:25.616Z,10.30
2023-02-19T23:03:58.047Z,10.50
2023-02-19T23:06:27.917Z,10.60
2023-02-19T23:08:56.658Z,10.70
2023-02-19T23:11:26.326Z,10.80
2023-02-19T23:13:53.673Z,10.90
2023-02-19T23:16:21.278Z,10.70
2023-02-19T23:18:48.797Z,10.60
2023-02-19T23:21:17.019Z,10.50
2023-02-19T23:23:44.628Z,10.70
2023-02-19T23:26:12.704Z,10.70
2023-02-19T23:28:40.458Z,10.70
2023-02-19T23:31:07.929Z,10.80
2023-02-19T23:33:35.516Z,10.80
2023-02-19T23:36:02.508Z,10.90
2023-02-19T23:38:29.373Z,10.90
2023-02-19T23:40:56.305Z,11.00
2023-02-19T23:43:23.192Z,10.90
2023-02-19T23:45:50.094Z,10.90
2023-02-19T23:48:17.166Z,10.80
2023-02-19T23:50:44.071Z,10.60
2023-02-19T23:53:10.999Z,10.60
2023-02-19T23:55:37.881Z,10.50
2023-02-19T23:58:04.802Z,10.70
